Time;durP1;ratioP1;P1;durP2;ratioP2;P2;SDS_P1;SDS_P2;PMS_P1;PMS_P2;Temp;Humidity;BMP_temperature;BMP_pressure;BME280_temperature;BME280_humidity;BME280_pressure;Samples;Min_cycle;Max_cycle;Signal;HPM_P1;HPM_P2
2021/12/21 00:01:16;;;;;;;13.00;7.70;;;;;;;;;;5087529;28;20532;-74
2021/12/21 00:03:44;;;;;;;13.00;8.77;;;;;;;;;;5098584;28;20439;-74
2021/12/21 00:06:11;;;;;;;15.33;8.77;;;;;;;;;;5100299;28;20467;-74
2021/12/21 00:08:40;;;;;;;13.33;7.87;;;;;;;;;;5100270;28;20986;-74
2021/12/21 00:11:16;;;;;;;15.27;9.33;;;;;;;;;;5100507;28;20492;-74
2021/12/21 00:19:42;;;;;;;13.37;8.37;;;;;;;;;;5037250;28;20521;-74
2021/12/21 00:22:26;;;;;;;14.00;8.67;;;;;;;;;;5080543;28;20484;-73
2021/12/21 00:24:55;;;;;;;11.83;7.67;;;;;;;;;;5099054;28;20455;-74
2021/12/21 00:27:23;;;;;;;13.90;8.33;;;;;;;;;;5098679;28;20456;-74
2021/12/21 00:29:50;;;;;;;12.13;7.93;;;;;;;;;;5095845;28;20448;-74
2021/12/21 00:32:18;;;;;;;13.73;8.67;;;;;;;;;;5097096;28;20483;-74
2021/12/21 00:34:46;;;;;;;12.87;8.27;;;;;;;;;;5097972;28;20439;-74
2021/12/21 00:37:14;;;;;;;13.60;7.93;;;;;;;;;;5097203;28;20498;-74
2021/12/21 00:39:41;;;;;;;11.70;7.77;;;;;;;;;;5097973;28;20495;-74
2021/12/21 00:42:11;;;;;;;12.10;7.83;;;;;;;;;;5097871;28;20484;-74
2021/12/21 00:44:38;;;;;;;11.13;7.47;;;;;;;;;;5097841;28;20493;-74
2021/12/21 00:47:06;;;;;;;12.40;6.70;;;;;;;;;;5099293;28;20795;-74
2021/12/21 00:49:35;;;;;;;13.43;7.73;;;;;;;;;;5099368;28;20459;-74
2021/12/21 00:52:04;;;;;;;12.07;7.37;;;;;;;;;;5098863;28;20455;-74
2021/12/21 00:54:31;;;;;;;11.30;7.53;;;;;;;;;;5098556;28;20460;-74
2021/12/21 00:56:59;;;;;;;12.23;8.20;;;;;;;;;;5099773;28;20789;-74
2021/12/21 00:59:28;;;;;;;14.13;8.47;;;;;;;;;;5098817;28;20841;-74
2021/12/21 01:01:56;;;;;;;13.13;8.47;;;;;;;;;;5081349;28;20476;-74
2021/12/21 01:04:29;;;;;;;12.50;7.40;;;;;;;;;;5092774;28;20444;-74
2021/12/21 01:07:05;;;;;;;12.97;8.47;;;;;;;;;;5099237;28;20536;-74
2021/12/21 01:10:00;;;;;;;15.90;8.27;;;;;;;;;;5098481;28;21038;-74
2021/12/21 01:12:41;;;;;;;12.13;7.93;;;;;;;;;;5089181;28;20444;-74
2021/12/21 01:15:20;;;;;;;11.10;7.53;;;;;;;;;;5102739;28;20941;-74
2021/12/21 01:17:53;;;;;;;11.53;7.83;;;;;;;;;;5099272;28;20447;-74
2021/12/21 01:20:30;;;;;;;15.60;8.50;;;;;;;;;;5097577;28;20444;-74
2021/12/21 01:23:21;;;;;;;13.57;8.37;;;;;;;;;;5097418;28;20518;-74
2021/12/21 01:25:55;;;;;;;13.53;8.63;;;;;;;;;;5098284;28;20509;-74
2021/12/21 01:28:32;;;;;;;17.37;9.63;;;;;;;;;;5097338;28;20560;-74
2021/12/21 01:31:14;;;;;;;13.33;8.33;;;;;;;;;;5098908;28;20508;-74
2021/12/21 01:33:53;;;;;;;17.93;10.43;;;;;;;;;;5098813;28;20475;-74
2021/12/21 01:36:27;;;;;;;12.13;7.17;;;;;;;;;;5099073;28;20934;-74
2021/12/21 01:39:00;;;;;;;14.30;8.70;;;;;;;;;;5098008;28;20505;-74
2021/12/21 01:41:35;;;;;;;13.20;8.83;;;;;;;;;;5086120;28;20471;-74
2021/12/21 01:44:16;;;;;;;11.63;8.20;;;;;;;;;;5098825;28;20439;-74
2021/12/21 01:49:42;;;;;;;16.73;8.47;;;;;;;;;;5098044;28;20464;-74
2021/12/21 01:52:12;;;;;;;13.80;8.87;;;;;;;;;;5098594;28;20461;-74
2021/12/21 01:54:40;;;;;;;13.60;8.43;;;;;;;;;;5097250;28;20455;-74
2021/12/21 01:57:08;;;;;;;11.93;7.93;;;;;;;;;;5098394;28;20814;-74
2021/12/21 01:59:37;;;;;;;14.43;8.07;;;;;;;;;;5097611;28;20471;-74
2021/12/21 02:02:08;;;;;;;14.70;9.20;;;;;;;;;;5085237;28;20536;-74
2021/12/21 02:04:36;;;;;;;14.40;9.07;;;;;;;;;;5089987;28;20440;-74
2021/12/21 02:07:04;;;;;;;12.60;7.60;;;;;;;;;;5097653;28;20475;-74
2021/12/21 02:09:37;;;;;;;15.37;8.67;;;;;;;;;;5097341;28;20484;-74
2021/12/21 02:12:05;;;;;;;12.30;8.23;;;;;;;;;;5098183;28;20458;-74
2021/12/21 02:14:33;;;;;;;13.97;7.80;;;;;;;;;;5097204;28;20477;-75
2021/12/21 02:17:19;;;;;;;13.90;8.40;;;;;;;;;;5098012;28;20452;-74
2021/12/21 02:20:00;;;;;;;14.23;8.73;;;;;;;;;;5097566;28;20471;-74
2021/12/21 02:22:31;;;;;;;12.93;7.87;;;;;;;;;;5098352;28;20522;-74
2021/12/21 02:25:07;;;;;;;12.97;8.40;;;;;;;;;;5096100;28;20455;-74
2021/12/21 02:27:43;;;;;;;13.00;7.57;;;;;;;;;;5097832;28;20515;-74
2021/12/21 02:30:14;;;;;;;12.60;7.63;;;;;;;;;;5097780;28;20443;-74
2021/12/21 02:32:42;;;;;;;13.73;8.37;;;;;;;;;;5096097;28;20788;-74
2021/12/21 02:35:11;;;;;;;14.97;8.60;;;;;;;;;;5095461;28;20439;-74
2021/12/21 02:37:39;;;;;;;13.07;8.40;;;;;;;;;;5096024;28;20479;-74
2021/12/21 02:40:07;;;;;;;12.77;8.80;;;;;;;;;;5094068;28;20459;-74
2021/12/21 02:42:35;;;;;;;13.50;7.67;;;;;;;;;;5095951;28;20522;-74
2021/12/21 02:45:03;;;;;;;14.10;8.83;;;;;;;;;;5095151;28;21012;-74
2021/12/21 02:47:31;;;;;;;12.93;8.30;;;;;;;;;;5097549;28;20467;-74
2021/12/21 02:49:59;;;;;;;16.40;8.40;;;;;;;;;;5097428;28;20484;-74
2021/12/21 02:52:29;;;;;;;11.10;7.83;;;;;;;;;;5096830;28;20958;-74
2021/12/21 02:54:56;;;;;;;14.00;9.17;;;;;;;;;;5096994;28;20456;-74
2021/12/21 02:57:24;;;;;;;13.47;7.73;;;;;;;;;;5097470;28;20450;-74
2021/12/21 02:59:52;;;;;;;11.97;7.13;;;;;;;;;;5096102;28;20503;-74
2021/12/21 03:02:19;;;;;;;12.23;7.37;;;;;;;;;;5090348;28;20491;-74
2021/12/21 03:04:49;;;;;;;13.83;8.23;;;;;;;;;;5083924;28;20442;-74
2021/12/21 03:07:57;;;;;;;15.10;8.53;;;;;;;;;;5097138;28;20479;-74
2021/12/21 03:10:26;;;;;;;13.13;8.93;;;;;;;;;;5097033;28;20443;-74
2021/12/21 03:15:44;;;;;;;15.13;8.10;;;;;;;;;;5020608;28;20598;-74
2021/12/21 03:18:12;;;;;;;13.60;9.23;;;;;;;;;;5091827;28;20513;-74
2021/12/21 03:20:39;;;;;;;12.40;8.60;;;;;;;;;;5096921;28;20481;-74
2021/12/21 03:23:07;;;;;;;16.00;8.60;;;;;;;;;;5097232;28;20471;-74
2021/12/21 03:25:36;;;;;;;11.97;8.23;;;;;;;;;;5096460;28;20451;-74
2021/12/21 03:28:04;;;;;;;15.90;9.43;;;;;;;;;;5097352;28;20499;-74
2021/12/21 03:30:32;;;;;;;15.73;8.60;;;;;;;;;;5084011;28;20455;-74
2021/12/21 03:33:00;;;;;;;15.37;8.40;;;;;;;;;;5097428;28;20974;-74
2021/12/21 03:35:28;;;;;;;15.27;9.43;;;;;;;;;;5097077;28;20448;-74
2021/12/21 03:37:55;;;;;;;16.63;8.97;;;;;;;;;;5096247;28;20451;-74
2021/12/21 03:40:23;;;;;;;14.20;8.57;;;;;;;;;;5096943;28;21012;-74
2021/12/21 03:42:52;;;;;;;15.57;8.67;;;;;;;;;;5097421;28;20483;-74
2021/12/21 03:45:20;;;;;;;16.97;9.50;;;;;;;;;;5093638;28;20859;-74
2021/12/21 03:47:47;;;;;;;17.03;9.47;;;;;;;;;;5097218;28;20452;-74
2021/12/21 03:50:19;;;;;;;16.73;9.70;;;;;;;;;;5096639;28;20439;-74
2021/12/21 03:52:46;;;;;;;14.50;9.57;;;;;;;;;;5099162;28;20459;-74
2021/12/21 03:55:15;;;;;;;14.17;8.43;;;;;;;;;;5100862;28;20802;-74
2021/12/21 03:57:43;;;;;;;18.23;10.17;;;;;;;;;;5100671;28;20463;-74
2021/12/21 04:00:14;;;;;;;15.83;9.00;;;;;;;;;;5100991;28;20443;-74
2021/12/21 04:02:41;;;;;;;17.07;10.07;;;;;;;;;;5099324;28;20501;-74
2021/12/21 04:05:09;;;;;;;15.27;9.17;;;;;;;;;;5100075;28;20826;-74
2021/12/21 04:07:37;;;;;;;12.37;8.87;;;;;;;;;;5099127;28;20601;-74
2021/12/21 04:10:06;;;;;;;18.00;10.23;;;;;;;;;;5100481;28;20467;-74
2021/12/21 04:12:33;;;;;;;16.50;10.13;;;;;;;;;;5098800;28;20486;-74
2021/12/21 04:15:03;;;;;;;15.77;9.20;;;;;;;;;;5099592;28;20467;-74
2021/12/21 04:17:32;;;;;;;18.13;10.10;;;;;;;;;;5100328;28;20448;-74
2021/12/21 04:20:01;;;;;;;14.03;9.17;;;;;;;;;;5099875;28;20467;-74
2021/12/21 04:22:29;;;;;;;13.93;8.70;;;;;;;;;;5100315;28;20450;-74
2021/12/21 04:24:57;;;;;;;14.47;9.07;;;;;;;;;;5100313;28;20440;-74
2021/12/21 04:27:24;;;;;;;16.00;9.50;;;;;;;;;;5099212;28;20456;-74
2021/12/21 04:29:52;;;;;;;17.87;9.47;;;;;;;;;;5100061;28;20485;-74
2021/12/21 04:32:20;;;;;;;15.13;9.93;;;;;;;;;;5100186;28;20452;-74
2021/12/21 04:34:49;;;;;;;16.23;9.47;;;;;;;;;;5099460;28;20475;-74
2021/12/21 04:37:17;;;;;;;14.47;8.77;;;;;;;;;;5098985;28;20516;-74
2021/12/21 04:39:51;;;;;;;16.57;9.50;;;;;;;;;;5099986;28;20464;-74
2021/12/21 04:42:19;;;;;;;13.33;8.93;;;;;;;;;;5099398;28;20996;-74
2021/12/21 04:44:47;;;;;;;16.67;9.57;;;;;;;;;;5098988;28;20490;-74
2021/12/21 04:47:14;;;;;;;14.00;9.03;;;;;;;;;;5100154;28;20927;-74
2021/12/21 04:49:42;;;;;;;16.50;10.17;;;;;;;;;;5098577;28;20486;-74
2021/12/21 04:52:12;;;;;;;17.33;9.13;;;;;;;;;;5099923;28;20480;-74
2021/12/21 04:54:39;;;;;;;15.17;8.80;;;;;;;;;;5099658;28;20440;-74
2021/12/21 04:57:07;;;;;;;17.77;9.70;;;;;;;;;;5099918;28;20987;-74
2021/12/21 04:59:35;;;;;;;14.83;9.33;;;;;;;;;;5099365;28;20459;-74
2021/12/21 05:02:03;;;;;;;17.30;10.60;;;;;;;;;;5094072;28;20440;-74
2021/12/21 05:04:31;;;;;;;15.07;10.43;;;;;;;;;;5094640;28;20985;-74
2021/12/21 05:06:58;;;;;;;14.03;9.60;;;;;;;;;;5098623;28;20492;-74
2021/12/21 05:09:36;;;;;;;14.80;8.87;;;;;;;;;;5099553;28;20484;-74
2021/12/21 05:12:07;;;;;;;18.13;9.77;;;;;;;;;;5098828;28;20571;-74
2021/12/21 05:14:34;;;;;;;13.80;9.53;;;;;;;;;;5098396;28;20458;-74
2021/12/21 05:17:02;;;;;;;17.47;11.30;;;;;;;;;;5099132;28;20462;-74
2021/12/21 05:19:31;;;;;;;17.07;9.13;;;;;;;;;;5098975;28;20572;-74
2021/12/21 05:21:59;;;;;;;16.97;10.17;;;;;;;;;;5100461;28;20997;-73
2021/12/21 05:24:28;;;;;;;17.63;10.20;;;;;;;;;;5106718;28;20471;-73
2021/12/21 05:26:56;;;;;;;14.70;9.27;;;;;;;;;;5101322;28;20509;-73
2021/12/21 05:29:24;;;;;;;15.40;9.73;;;;;;;;;;5101705;28;20491;-73
2021/12/21 05:31:51;;;;;;;16.17;9.43;;;;;;;;;;5106898;28;20816;-73
2021/12/21 05:34:19;;;;;;;18.50;10.83;;;;;;;;;;5108439;28;20849;-73
2021/12/21 05:36:47;;;;;;;18.03;10.80;;;;;;;;;;5099848;28;20479;-73
2021/12/21 05:39:19;;;;;;;18.30;9.83;;;;;;;;;;5097002;28;20498;-74
2021/12/21 05:41:50;;;;;;;20.10;10.57;;;;;;;;;;5093122;28;20468;-73
2021/12/21 05:44:19;;;;;;;15.17;9.70;;;;;;;;;;5097775;28;20475;-73
2021/12/21 05:46:47;;;;;;;19.80;10.47;;;;;;;;;;5097450;28;20459;-73
2021/12/21 05:49:16;;;;;;;16.40;10.40;;;;;;;;;;5097114;28;20464;-73
2021/12/21 05:51:43;;;;;;;17.17;10.87;;;;;;;;;;5096638;28;20485;-72
2021/12/21 05:54:12;;;;;;;17.63;10.43;;;;;;;;;;5095737;28;20439;-72
2021/12/21 05:56:40;;;;;;;15.97;9.87;;;;;;;;;;5097881;28;20442;-73
2021/12/21 05:59:09;;;;;;;19.10;10.47;;;;;;;;;;5098049;28;20483;-73
2021/12/21 06:01:37;;;;;;;21.63;10.63;;;;;;;;;;5095348;28;20458;-73
2021/12/21 06:04:05;;;;;;;19.73;11.70;;;;;;;;;;5096142;28;20483;-73
2021/12/21 06:06:34;;;;;;;20.13;10.97;;;;;;;;;;5097324;28;20491;-74
2021/12/21 06:09:06;;;;;;;18.00;10.23;;;;;;;;;;5095462;28;21066;-74
2021/12/21 06:11:38;;;;;;;16.80;10.27;;;;;;;;;;5094782;28;20450;-74
2021/12/21 06:14:17;;;;;;;17.80;10.67;;;;;;;;;;5097876;28;20908;-74
2021/12/21 06:27:51;;;;;;;18.83;10.80;;;;;;;;;;5084877;28;20451;-73
2021/12/21 06:30:19;;;;;;;18.80;12.93;;;;;;;;;;5097612;28;20440;-74
2021/12/21 06:32:49;;;;;;;16.47;10.50;;;;;;;;;;5100548;28;20451;-74
2021/12/21 06:35:17;;;;;;;17.63;10.90;;;;;;;;;;5103109;28;20463;-74
2021/12/21 06:37:45;;;;;;;18.83;11.43;;;;;;;;;;5093291;28;20456;-74
2021/12/21 06:40:13;;;;;;;15.57;10.67;;;;;;;;;;5106827;28;20855;-74
2021/12/21 06:42:41;;;;;;;17.77;11.00;;;;;;;;;;5097575;28;20481;-74
2021/12/21 06:45:15;;;;;;;18.27;10.87;;;;;;;;;;5096202;28;21055;-74
2021/12/21 06:53:16;;;;;;;18.10;11.13;;;;;;;;;;5095937;28;20432;-73
2021/12/21 06:55:43;;;;;;;20.83;11.00;;;;;;;;;;5094928;28;20435;-75
2021/12/21 06:58:11;;;;;;;20.23;11.77;;;;;;;;;;5095582;28;20479;-73
2021/12/21 07:00:39;;;;;;;21.53;11.63;;;;;;;;;;5097036;28;20931;-69
2021/12/21 07:03:07;;;;;;;17.50;10.93;;;;;;;;;;5097037;28;20451;-71
2021/12/21 07:05:37;;;;;;;19.07;10.63;;;;;;;;;;5094598;28;20494;-72
2021/12/21 07:08:06;;;;;;;20.90;11.27;;;;;;;;;;5094711;28;20490;-72
2021/12/21 07:10:34;;;;;;;15.80;10.83;;;;;;;;;;5097075;28;20451;-72
2021/12/21 07:18:33;;;;;;;15.50;11.20;;;;;;;;;;5095896;28;20505;-71
2021/12/21 07:21:03;;;;;;;19.37;10.53;;;;;;;;;;5097331;28;20443;-71
2021/12/21 07:23:31;;;;;;;20.53;12.43;;;;;;;;;;5097099;28;20454;-70
2021/12/21 07:25:58;;;;;;;20.23;11.33;;;;;;;;;;5097859;28;20530;-71
2021/12/21 07:28:26;;;;;;;20.17;11.23;;;;;;;;;;5099873;28;20463;-71
2021/12/21 07:30:56;;;;;;;18.33;10.73;;;;;;;;;;5101365;28;20479;-72
2021/12/21 07:33:23;;;;;;;17.97;11.57;;;;;;;;;;5101192;28;20869;-71
2021/12/21 07:35:51;;;;;;;20.27;11.47;;;;;;;;;;5099697;28;20500;-71
2021/12/21 07:38:22;;;;;;;18.50;10.97;;;;;;;;;;5100602;28;20471;-65
2021/12/21 07:40:50;;;;;;;16.90;11.73;;;;;;;;;;5097405;28;20451;-64
2021/12/21 07:43:17;;;;;;;17.37;10.93;;;;;;;;;;5098461;28;20486;-64
2021/12/21 07:45:45;;;;;;;15.77;9.80;;;;;;;;;;5099981;28;20478;-64
2021/12/21 07:48:13;;;;;;;18.80;11.00;;;;;;;;;;5100615;28;20455;-64
2021/12/21 07:50:41;;;;;;;19.20;11.13;;;;;;;;;;5099941;28;20459;-71
2021/12/21 07:53:09;;;;;;;20.63;12.17;;;;;;;;;;5093796;28;20479;-71
2021/12/21 07:55:38;;;;;;;19.80;11.70;;;;;;;;;;5098777;28;20822;-69
2021/12/21 07:58:06;;;;;;;22.37;11.60;;;;;;;;;;5099867;28;20486;-69
2021/12/21 08:00:34;;;;;;;21.23;11.80;;;;;;;;;;5097573;28;20436;-69
2021/12/21 08:03:02;;;;;;;20.47;12.03;;;;;;;;;;5099724;28;20439;-68
2021/12/21 08:05:33;;;;;;;15.67;10.30;;;;;;;;;;5099001;28;20570;-68
2021/12/21 08:08:10;;;;;;;17.23;11.70;;;;;;;;;;5096724;28;20928;-71
2021/12/21 08:10:45;;;;;;;19.60;12.67;;;;;;;;;;5099587;28;20848;-69
2021/12/21 08:13:13;;;;;;;21.80;12.30;;;;;;;;;;5107351;28;20446;-68
2021/12/21 08:15:41;;;;;;;23.87;12.10;;;;;;;;;;5107879;28;20448;-69
2021/12/21 08:18:09;;;;;;;20.83;11.70;;;;;;;;;;5107544;28;20474;-68
2021/12/21 08:20:37;;;;;;;19.30;13.17;;;;;;;;;;5108758;28;20435;-67
2021/12/21 08:23:06;;;;;;;18.27;11.03;;;;;;;;;;5109398;28;20447;-68
2021/12/21 08:25:34;;;;;;;20.70;12.43;;;;;;;;;;5110880;28;20482;-68
2021/12/21 08:28:07;;;;;;;18.67;11.20;;;;;;;;;;5108236;28;20974;-72
2021/12/21 08:30:35;;;;;;;18.57;10.93;;;;;;;;;;5108804;28;20458;-68
2021/12/21 08:33:03;;;;;;;18.67;11.73;;;;;;;;;;5106445;28;20955;-70
2021/12/21 08:35:31;;;;;;;19.80;12.07;;;;;;;;;;5106929;28;20434;-68
2021/12/21 08:38:04;;;;;;;17.80;11.73;;;;;;;;;;5106373;28;20464;-67
2021/12/21 08:40:38;;;;;;;18.73;11.03;;;;;;;;;;5105039;28;20448;-68
2021/12/21 08:43:08;;;;;;;24.97;12.60;;;;;;;;;;5099530;28;20512;-67
2021/12/21 08:45:36;;;;;;;21.43;11.97;;;;;;;;;;5099327;28;20915;-68
2021/12/21 08:48:05;;;;;;;20.80;11.23;;;;;;;;;;5099666;28;20502;-70
2021/12/21 08:50:33;;;;;;;19.67;12.50;;;;;;;;;;5096277;28;20955;-69
2021/12/21 08:53:02;;;;;;;16.60;11.17;;;;;;;;;;5099465;28;20485;-69
2021/12/21 08:55:29;;;;;;;18.17;11.87;;;;;;;;;;5099661;28;20954;-71
2021/12/21 08:57:57;;;;;;;20.97;11.63;;;;;;;;;;5099488;28;20444;-68
2021/12/21 09:00:26;;;;;;;18.33;11.73;;;;;;;;;;5100725;28;20848;-69
2021/12/21 09:02:54;;;;;;;16.83;11.30;;;;;;;;;;5106735;28;20434;-69
2021/12/21 09:05:26;;;;;;;24.07;12.03;;;;;;;;;;5108954;28;20479;-68
2021/12/21 09:07:55;;;;;;;22.13;12.33;;;;;;;;;;5106953;28;20475;-68
2021/12/21 09:10:23;;;;;;;22.47;13.33;;;;;;;;;;5111684;28;21034;-68
2021/12/21 09:12:51;;;;;;;18.93;11.70;;;;;;;;;;5099236;28;21000;-70
2021/12/21 09:15:20;;;;;;;21.20;12.67;;;;;;;;;;5099192;28;20444;-68
2021/12/21 09:17:50;;;;;;;19.77;12.43;;;;;;;;;;5099013;28;20444;-68
2021/12/21 09:20:19;;;;;;;21.87;13.40;;;;;;;;;;5098765;28;20443;-69
2021/12/21 09:22:47;;;;;;;25.37;14.37;;;;;;;;;;5098008;28;20479;-69
2021/12/21 09:25:15;;;;;;;20.77;12.93;;;;;;;;;;5098920;28;20483;-69
2021/12/21 09:27:43;;;;;;;21.23;12.30;;;;;;;;;;5098747;28;20463;-69
2021/12/21 09:30:11;;;;;;;21.30;13.13;;;;;;;;;;5097522;28;20452;-68
2021/12/21 09:32:40;;;;;;;19.53;12.33;;;;;;;;;;5098670;28;20455;-69
2021/12/21 09:35:09;;;;;;;26.13;15.93;;;;;;;;;;5098396;28;20468;-68
2021/12/21 09:37:41;;;;;;;23.97;13.67;;;;;;;;;;5092624;28;20459;-68
2021/12/21 09:40:11;;;;;;;29.10;15.70;;;;;;;;;;5098724;28;20439;-68
2021/12/21 09:42:38;;;;;;;30.27;16.60;;;;;;;;;;5085176;28;20483;-68
2021/12/21 09:45:08;;;;;;;27.73;15.23;;;;;;;;;;5097617;28;20439;-68
2021/12/21 09:47:36;;;;;;;18.57;11.67;;;;;;;;;;5098590;28;20444;-68
2021/12/21 09:50:05;;;;;;;19.33;11.80;;;;;;;;;;5097407;28;20487;-68
2021/12/21 09:52:35;;;;;;;24.63;13.60;;;;;;;;;;5097241;28;20459;-68
2021/12/21 09:55:04;;;;;;;28.03;14.47;;;;;;;;;;5098474;28;20807;-68
2021/12/21 09:57:32;;;;;;;20.73;11.83;;;;;;;;;;5098602;28;20476;-68
2021/12/21 10:00:00;;;;;;;18.87;11.63;;;;;;;;;;5098149;28;20506;-69
2021/12/21 10:02:27;;;;;;;25.00;13.87;;;;;;;;;;5102960;28;21003;-68
2021/12/21 10:04:57;;;;;;;21.80;13.83;;;;;;;;;;5104582;28;20434;-68
2021/12/21 10:07:25;;;;;;;21.60;12.90;;;;;;;;;;5100636;28;20514;-67
2021/12/21 10:10:05;;;;;;;22.17;13.40;;;;;;;;;;5106254;28;20930;-68
2021/12/21 10:12:35;;;;;;;20.10;12.03;;;;;;;;;;5104333;28;20451;-67
2021/12/21 10:15:04;;;;;;;25.10;13.20;;;;;;;;;;5103964;28;21215;-69
2021/12/21 10:17:35;;;;;;;22.67;13.33;;;;;;;;;;5106611;28;20431;-68
2021/12/21 10:20:04;;;;;;;24.07;14.10;;;;;;;;;;5102868;28;20786;-68
2021/12/21 10:22:32;;;;;;;26.50;14.93;;;;;;;;;;5101712;28;20452;-69
2021/12/21 10:25:00;;;;;;;24.43;13.67;;;;;;;;;;5097982;28;20444;-69
2021/12/21 10:27:29;;;;;;;24.27;13.77;;;;;;;;;;5097899;28;20994;-69
2021/12/21 10:29:58;;;;;;;25.43;14.23;;;;;;;;;;5097676;28;20493;-68
2021/12/21 10:32:27;;;;;;;21.73;12.97;;;;;;;;;;5097741;28;20942;-69
2021/12/21 10:34:59;;;;;;;21.60;13.00;;;;;;;;;;5097421;28;20439;-68
2021/12/21 10:37:28;;;;;;;22.77;12.23;;;;;;;;;;5094597;28;20451;-69
2021/12/21 10:40:08;;;;;;;24.10;13.33;;;;;;;;;;5097272;28;20455;-69
2021/12/21 10:42:50;;;;;;;21.60;13.20;;;;;;;;;;5097430;28;20451;-69
2021/12/21 10:45:19;;;;;;;24.13;13.23;;;;;;;;;;5089678;28;20858;-69
2021/12/21 10:47:48;;;;;;;20.60;12.10;;;;;;;;;;5091947;28;20928;-69
2021/12/21 10:50:16;;;;;;;19.07;11.20;;;;;;;;;;5097067;28;20439;-69
2021/12/21 10:52:48;;;;;;;26.93;14.37;;;;;;;;;;5096367;28;20456;-69
2021/12/21 10:55:16;;;;;;;21.13;12.07;;;;;;;;;;5097722;28;20458;-68
2021/12/21 10:57:45;;;;;;;20.97;12.27;;;;;;;;;;5097504;28;20459;-69
2021/12/21 11:00:16;;;;;;;33.03;14.27;;;;;;;;;;5097327;28;20848;-69
2021/12/21 11:02:45;;;;;;;23.40;13.00;;;;;;;;;;5108937;28;20455;-66
2021/12/21 11:05:15;;;;;;;26.77;13.80;;;;;;;;;;5108006;28;20449;-67
2021/12/21 11:07:46;;;;;;;22.57;12.80;;;;;;;;;;5109776;28;20532;-69
2021/12/21 11:10:16;;;;;;;21.43;12.57;;;;;;;;;;5101000;28;20443;-68
2021/12/21 11:13:06;;;;;;;19.70;13.17;;;;;;;;;;5101333;28;20448;-67
2021/12/21 11:15:43;;;;;;;22.37;11.87;;;;;;;;;;5100163;28;20487;-68
2021/12/21 11:18:12;;;;;;;24.47;13.13;;;;;;;;;;5100858;28;20803;-68
2021/12/21 11:20:43;;;;;;;24.43;13.63;;;;;;;;;;5101347;28;20443;-69
2021/12/21 11:23:12;;;;;;;25.13;14.47;;;;;;;;;;5100469;28;20526;-70
2021/12/21 11:25:42;;;;;;;23.30;14.50;;;;;;;;;;5101257;28;20481;-70
2021/12/21 11:28:12;;;;;;;21.77;13.93;;;;;;;;;;5100252;28;20487;-70
2021/12/21 11:30:42;;;;;;;22.17;14.20;;;;;;;;;;5105650;28;20436;-70
2021/12/21 11:33:11;;;;;;;27.27;14.47;;;;;;;;;;5099714;28;20444;-70
2021/12/21 11:38:25;;;;;;;23.40;13.23;;;;;;;;;;5099698;28;20634;-70
2021/12/21 11:40:53;;;;;;;25.03;13.27;;;;;;;;;;5099840;28;20512;-70
2021/12/21 11:43:25;;;;;;;20.87;12.40;;;;;;;;;;5098333;28;20830;-70
2021/12/21 11:45:56;;;;;;;18.47;12.53;;;;;;;;;;5100881;28;20471;-70
2021/12/21 11:48:36;;;;;;;21.20;12.30;;;;;;;;;;5100334;28;20611;-70
2021/12/21 11:51:06;;;;;;;25.40;14.40;;;;;;;;;;5099317;28;20454;-70
2021/12/21 11:53:34;;;;;;;23.60;13.33;;;;;;;;;;5100586;28;20926;-70
2021/12/21 11:56:02;;;;;;;27.90;15.37;;;;;;;;;;5100629;28;20864;-70
2021/12/21 11:58:32;;;;;;;24.33;15.37;;;;;;;;;;5099419;28;20459;-70
2021/12/21 12:01:02;;;;;;;26.03;13.77;;;;;;;;;;5100717;28;21001;-70
2021/12/21 12:03:31;;;;;;;34.73;15.70;;;;;;;;;;5098433;28;20817;-70
2021/12/21 12:06:00;;;;;;;24.70;15.67;;;;;;;;;;5099037;28;20431;-70
2021/12/21 12:08:28;;;;;;;28.67;16.03;;;;;;;;;;5098535;28;20483;-70
2021/12/21 12:10:58;;;;;;;24.90;14.67;;;;;;;;;;5099727;28;20483;-70
2021/12/21 12:13:27;;;;;;;25.87;13.60;;;;;;;;;;5098934;28;20950;-70
2021/12/21 12:15:56;;;;;;;29.93;14.37;;;;;;;;;;5100308;28;20443;-70
2021/12/21 12:18:27;;;;;;;24.13;13.40;;;;;;;;;;5100117;28;20464;-70
2021/12/21 12:20:57;;;;;;;34.80;18.40;;;;;;;;;;5099063;28;20451;-71
2021/12/21 12:23:24;;;;;;;26.07;14.47;;;;;;;;;;5100333;28;20473;-70
2021/12/21 12:25:54;;;;;;;25.77;14.47;;;;;;;;;;5100100;28;20447;-70
2021/12/21 12:28:23;;;;;;;26.40;15.50;;;;;;;;;;5100101;28;20512;-70
2021/12/21 12:30:51;;;;;;;26.70;15.13;;;;;;;;;;5100053;28;20451;-70
2021/12/21 12:33:19;;;;;;;28.70;15.47;;;;;;;;;;5098721;28;20489;-70
2021/12/21 12:35:48;;;;;;;25.77;14.77;;;;;;;;;;5098209;28;20451;-70
2021/12/21 12:38:18;;;;;;;30.57;14.70;;;;;;;;;;5099716;28;21008;-70
2021/12/21 12:40:48;;;;;;;29.10;14.63;;;;;;;;;;5099050;28;20455;-69
2021/12/21 12:43:17;;;;;;;25.13;14.13;;;;;;;;;;5098627;28;20613;-70
2021/12/21 12:45:49;;;;;;;30.23;14.77;;;;;;;;;;5099452;28;20448;-70
2021/12/21 12:48:18;;;;;;;25.70;14.70;;;;;;;;;;5099132;28;20491;-70
2021/12/21 12:50:46;;;;;;;31.90;15.90;;;;;;;;;;5098665;28;20439;-70
2021/12/21 12:53:16;;;;;;;28.40;14.50;;;;;;;;;;5099237;28;20876;-70
2021/12/21 12:55:45;;;;;;;27.87;15.43;;;;;;;;;;5099700;28;20439;-71
2021/12/21 12:58:35;;;;;;;24.93;13.07;;;;;;;;;;5099619;28;20550;-72
2021/12/21 13:01:04;;;;;;;27.83;15.73;;;;;;;;;;5098821;28;20497;-67
2021/12/21 13:03:34;;;;;;;23.27;14.40;;;;;;;;;;5094031;28;20975;-67
2021/12/21 13:06:07;;;;;;;25.13;14.73;;;;;;;;;;5096190;28;20483;-65
2021/12/21 13:08:37;;;;;;;33.40;16.37;;;;;;;;;;5099101;28;20831;-66
2021/12/21 13:11:04;;;;;;;24.87;15.23;;;;;;;;;;5097848;28;20508;-68
2021/12/21 13:13:33;;;;;;;28.03;16.03;;;;;;;;;;5098057;28;20456;-66
2021/12/21 13:16:05;;;;;;;29.97;16.53;;;;;;;;;;5099203;28;20440;-67
2021/12/21 13:18:33;;;;;;;28.67;16.03;;;;;;;;;;5098901;28;20517;-67
2021/12/21 13:21:01;;;;;;;26.70;14.83;;;;;;;;;;5096711;28;20452;-67
2021/12/21 13:23:29;;;;;;;26.27;15.33;;;;;;;;;;5098374;28;20469;-67
2021/12/21 13:26:00;;;;;;;25.33;15.37;;;;;;;;;;5097576;28;20460;-66
2021/12/21 13:28:29;;;;;;;26.60;15.23;;;;;;;;;;5098449;28;20479;-66
2021/12/21 13:30:58;;;;;;;24.00;14.37;;;;;;;;;;5098791;28;20805;-66
2021/12/21 13:33:26;;;;;;;26.60;14.90;;;;;;;;;;5098740;28;20452;-67
2021/12/21 13:35:55;;;;;;;26.83;14.67;;;;;;;;;;5098060;28;20435;-67
2021/12/21 13:38:25;;;;;;;28.10;14.57;;;;;;;;;;5098219;28;20455;-67
2021/12/21 13:41:02;;;;;;;24.47;14.17;;;;;;;;;;5097508;28;20822;-67
2021/12/21 13:43:33;;;;;;;28.60;15.67;;;;;;;;;;5098484;28;20443;-67
2021/12/21 13:46:02;;;;;;;28.73;15.73;;;;;;;;;;5098521;28;20854;-67
2021/12/21 13:48:31;;;;;;;29.07;17.07;;;;;;;;;;5096695;28;20491;-67
2021/12/21 13:51:09;;;;;;;29.03;15.50;;;;;;;;;;5097904;28;20466;-66
2021/12/21 13:53:41;;;;;;;30.40;15.10;;;;;;;;;;5097750;28;20964;-66
2021/12/21 13:56:12;;;;;;;25.60;15.47;;;;;;;;;;5097798;28;20493;-66
2021/12/21 13:58:41;;;;;;;28.80;15.00;;;;;;;;;;5096146;28;20950;-66
2021/12/21 14:01:16;;;;;;;29.63;16.40;;;;;;;;;;5096420;28;20954;-66
2021/12/21 14:03:51;;;;;;;29.17;16.17;;;;;;;;;;5092790;28;20483;-67
2021/12/21 14:06:22;;;;;;;25.13;14.17;;;;;;;;;;5090270;28;20487;-67
2021/12/21 14:08:50;;;;;;;31.47;16.47;;;;;;;;;;5080747;28;20483;-69
2021/12/21 14:11:20;;;;;;;28.73;16.17;;;;;;;;;;5082126;28;20480;-69
2021/12/21 14:13:50;;;;;;;29.40;15.43;;;;;;;;;;5089141;28;20464;-68
2021/12/21 14:16:19;;;;;;;28.70;15.80;;;;;;;;;;5092264;28;20939;-68
2021/12/21 14:18:47;;;;;;;26.67;15.07;;;;;;;;;;5097496;28;20971;-68
2021/12/21 14:21:16;;;;;;;25.33;15.93;;;;;;;;;;5097297;28;20486;-69
2021/12/21 14:23:45;;;;;;;25.73;14.23;;;;;;;;;;5097557;28;20523;-69
2021/12/21 14:26:15;;;;;;;28.07;15.13;;;;;;;;;;5097237;28;20436;-68
2021/12/21 14:28:48;;;;;;;35.43;16.53;;;;;;;;;;5096053;28;20483;-68
2021/12/21 14:31:17;;;;;;;28.07;15.20;;;;;;;;;;5096623;28;20988;-68
2021/12/21 14:33:48;;;;;;;23.93;14.17;;;;;;;;;;5097223;28;20455;-68
2021/12/21 14:36:16;;;;;;;28.80;15.30;;;;;;;;;;5097600;28;20447;-68
2021/12/21 14:38:52;;;;;;;27.47;16.90;;;;;;;;;;5096665;28;20480;-66
2021/12/21 14:41:20;;;;;;;26.77;15.37;;;;;;;;;;5097256;28;20877;-68
2021/12/21 14:43:59;;;;;;;29.03;15.23;;;;;;;;;;5097872;28;20452;-68
2021/12/21 14:46:27;;;;;;;29.97;16.03;;;;;;;;;;5097619;28;20447;-68
2021/12/21 14:48:59;;;;;;;30.23;15.83;;;;;;;;;;5096318;28;20547;-68
2021/12/21 14:51:29;;;;;;;30.67;15.40;;;;;;;;;;5096585;28;20461;-68
2021/12/21 14:54:05;;;;;;;27.93;15.37;;;;;;;;;;5097824;28;20927;-69
2021/12/21 14:56:35;;;;;;;27.60;16.03;;;;;;;;;;5097293;28;20505;-68
2021/12/21 14:59:07;;;;;;;29.80;16.27;;;;;;;;;;5097719;28;20508;-68
2021/12/21 15:01:43;;;;;;;29.57;16.23;;;;;;;;;;5094354;28;20568;-69
2021/12/21 15:04:14;;;;;;;25.50;15.60;;;;;;;;;;5096572;28;20459;-69
2021/12/21 15:06:42;;;;;;;25.60;14.67;;;;;;;;;;5096385;28;20487;-68
2021/12/21 15:09:10;;;;;;;31.50;16.90;;;;;;;;;;5096729;28;20824;-68
2021/12/21 15:11:44;;;;;;;28.53;16.07;;;;;;;;;;5100170;28;20455;-69
2021/12/21 15:14:13;;;;;;;28.30;15.80;;;;;;;;;;5105903;28;20436;-69